createdAt,value
2017-09-05T00:02:04.806Z,98394.25
2017-09-05T00:04:33.159Z,98393.75
2017-09-05T00:07:01.479Z,98402.20
2017-09-05T00:09:29.827Z,98397.80
2017-09-05T00:11:59.114Z,98391.71
2017-09-05T00:14:35.871Z,98387.33
2017-09-05T00:17:04.893Z,98377.03
2017-09-05T00:22:32.698Z,98367.22
2017-09-05T00:25:01.049Z,98362.83
2017-09-05T00:27:29.365Z,98364.05
2017-09-05T00:29:57.680Z,98361.28
2017-09-05T00:32:26.023Z,98362.53
2017-09-05T00:34:54.338Z,98358.09
2017-09-05T00:37:22.659Z,98367.22
2017-09-05T00:39:50.998Z,98367.72
2017-09-05T00:42:19.317Z,98363.05
2017-09-05T00:44:47.650Z,98361.63
2017-09-05T00:47:15.966Z,98361.50
2017-09-05T00:49:44.278Z,98356.21
2017-09-05T00:52:12.625Z,98357.00
2017-09-05T00:54:40.947Z,98352.56
2017-09-05T00:57:09.268Z,98351.15
2017-09-05T00:59:37.615Z,98352.94
2017-09-05T01:02:05.944Z,98347.37
2017-09-05T01:04:34.251Z,98351.13
2017-09-05T01:07:02.591Z,98352.91
2017-09-05T01:09:30.911Z,98362.64
2017-09-05T01:11:59.259Z,98360.58
2017-09-05T01:14:27.575Z,98360.89
2017-09-05T01:16:55.935Z,98359.69
2017-09-05T01:19:24.270Z,98363.58
2017-09-05T01:21:52.588Z,98364.59
2017-09-05T01:24:20.930Z,98366.12
2017-09-05T01:26:49.246Z,98364.46
2017-09-05T01:29:17.566Z,98367.88
2017-09-05T01:31:45.909Z,98372.31
2017-09-05T01:34:14.226Z,98369.36
2017-09-05T01:36:42.554Z,98366.20
2017-09-05T01:39:10.889Z,98369.11
2017-09-05T01:41:39.205Z,98365.11
2017-09-05T01:44:07.539Z,98366.02
2017-09-05T01:46:35.880Z,98367.52
2017-09-05T01:49:04.190Z,98357.05
2017-09-05T01:51:32.539Z,98356.63
2017-09-05T01:54:00.854Z,98355.77
2017-09-05T01:56:29.203Z,98356.53
2017-09-05T01:58:57.514Z,98355.28
2017-09-05T02:01:25.858Z,98345.55
2017-09-05T02:03:54.185Z,98343.27
2017-09-05T02:06:22.498Z,98334.23
2017-09-05T02:08:50.839Z,98335.83
2017-09-05T02:11:19.154Z,98345.23
2017-09-05T02:13:47.471Z,98335.25
2017-09-05T02:16:15.814Z,98338.98
2017-09-05T02:18:44.134Z,98338.40
2017-09-05T02:21:12.470Z,98338.11
2017-09-05T02:23:40.788Z,98339.78
2017-09-05T02:26:09.134Z,98330.61
2017-09-05T02:28:37.451Z,98333.95
2017-09-05T02:31:05.759Z,98329.02
2017-09-05T02:33:34.103Z,98330.35
2017-09-05T02:36:02.418Z,98327.29
2017-09-05T02:38:30.745Z,98330.63
2017-09-05T02:40:59.086Z,98340.88
2017-09-05T02:43:27.425Z,98335.30
2017-09-05T02:45:55.743Z,98333.60
2017-09-05T02:48:24.084Z,98334.07
2017-09-05T02:50:52.398Z,98337.43
2017-09-05T02:53:20.752Z,98334.77
2017-09-05T02:55:49.079Z,98335.65
2017-09-05T02:58:17.396Z,98331.11
2017-09-05T03:00:45.734Z,98337.48
2017-09-05T03:03:14.054Z,98327.86
2017-09-05T03:05:42.402Z,98326.27
2017-09-05T03:08:10.727Z,98322.36
2017-09-05T03:10:39.043Z,98321.85
2017-09-05T03:13:07.390Z,98320.95
2017-09-05T03:15:35.710Z,98326.04
2017-09-05T03:18:04.025Z,98326.05
2017-09-05T03:20:32.376Z,98325.75
2017-09-05T03:23:00.690Z,98326.98
2017-09-05T03:25:29.034Z,98321.35
2017-09-05T03:27:57.359Z,98315.73
2017-09-05T03:30:25.675Z,98311.48
2017-09-05T03:32:54.015Z,98311.16
2017-09-05T03:35:22.342Z,98311.98
2017-09-05T03:37:50.682Z,98315.98
2017-09-05T03:40:18.999Z,98318.84
2017-09-05T03:42:47.324Z,98316.28
2017-09-05T03:45:15.658Z,98311.43
2017-09-05T03:47:43.980Z,98304.44
2017-09-05T03:50:12.329Z,98313.94
2017-09-05T03:52:40.643Z,98317.47
2017-09-05T03:55:08.988Z,98323.11
2017-09-05T03:57:37.299Z,98317.80
2017-09-05T04:00:05.617Z,98319.94
2017-09-05T04:02:33.962Z,98300.53
2017-09-05T04:05:02.282Z,98319.99
2017-09-05T04:07:30.601Z,98314.13
2017-09-05T04:09:58.950Z,98314.01
2017-09-05T04:12:27.258Z,98314.77
2017-09-05T04:14:55.576Z,98310.71
2017-09-05T04:17:23.915Z,98306.91
2017-09-05T04:19:52.231Z,98307.27
2017-09-05T04:22:20.546Z,98313.52
2017-09-05T04:24:48.890Z,98304.27
2017-09-05T04:27:17.212Z,98304.66
2017-09-05T04:29:45.562Z,98298.27
2017-09-05T04:32:13.879Z,98299.66
2017-09-05T04:34:42.199Z,98300.77
2017-09-05T04:37:10.539Z,98304.39
2017-09-05T04:39:38.856Z,98306.97
2017-09-05T04:42:07.201Z,98313.40
2017-09-05T04:44:35.522Z,98310.53
2017-09-05T04:47:03.856Z,98314.74
2017-09-05T04:49:32.177Z,98311.18
2017-09-05T04:52:00.523Z,98305.95
2017-09-05T04:54:28.838Z,98312.27
2017-09-05T04:56:57.151Z,98312.05
2017-09-05T04:59:25.499Z,98310.77
2017-09-05T05:01:53.811Z,98310.42
2017-09-05T05:04:22.127Z,98317.08
2017-09-05T05:06:51.231Z,98326.89
2017-09-05T05:09:19.555Z,98327.56
2017-09-05T05:11:47.886Z,98330.41
2017-09-05T05:14:16.198Z,98339.07
2017-09-05T05:16:44.559Z,98342.81
2017-09-05T05:19:12.879Z,98333.61
2017-09-05T05:21:41.244Z,98338.62
2017-09-05T05:24:09.562Z,98345.75
2017-09-05T05:26:37.885Z,98339.64
2017-09-05T05:29:06.226Z,98339.59
2017-09-05T05:31:34.551Z,98334.41
2017-09-05T05:34:02.867Z,98336.91
2017-09-05T05:36:31.208Z,98333.19
2017-09-05T05:38:59.524Z,98339.14
2017-09-05T05:41:27.875Z,98330.80
2017-09-05T05:43:56.193Z,98333.38
2017-09-05T05:46:24.542Z,98335.85
2017-09-05T05:48:52.930Z,98334.23
2017-09-05T05:51:21.329Z,98337.44
2017-09-05T05:53:49.904Z,98340.78
2017-09-05T05:56:18.222Z,98351.23
2017-09-05T05:58:46.771Z,98348.18
2017-09-05T06:01:15.424Z,98345.81
2017-09-05T06:03:43.738Z,98342.16
2017-09-05T06:06:12.058Z,98342.45
2017-09-05T06:08:40.403Z,98340.45
2017-09-05T06:11:08.714Z,98341.02
2017-09-05T06:13:37.026Z,98343.30
2017-09-05T06:16:05.382Z,98339.25
2017-09-05T06:18:33.707Z,98345.19
2017-09-05T06:21:02.063Z,98338.31
2017-09-05T06:23:30.378Z,98339.80
2017-09-05T06:25:58.694Z,98337.63
2017-09-05T06:28:27.039Z,98341.09
2017-09-05T06:30:55.354Z,98339.68
2017-09-05T06:33:23.670Z,98343.62
2017-09-05T06:35:52.014Z,98344.10
2017-09-05T06:38:20.326Z,98342.23
2017-09-05T06:40:48.638Z,98346.59
2017-09-05T06:43:16.982Z,98346.94
2017-09-05T06:45:45.513Z,98346.66
2017-09-05T06:48:14.039Z,98349.50
2017-09-05T06:50:42.373Z,98339.69
2017-09-05T06:53:10.685Z,98338.27
2017-09-05T06:55:39.023Z,98342.78
2017-09-05T06:58:07.336Z,98345.77
2017-09-05T07:00:35.674Z,98344.92
2017-09-05T07:03:03.993Z,98339.75
2017-09-05T07:05:32.307Z,98343.58
2017-09-05T07:08:00.649Z,98340.22
2017-09-05T07:10:28.963Z,98339.08
2017-09-05T07:12:57.280Z,98345.36
2017-09-05T07:15:25.621Z,98343.62
2017-09-05T07:17:53.934Z,98341.03
2017-09-05T07:20:22.270Z,98341.03
2017-09-05T07:22:50.586Z,98342.06
2017-09-05T07:25:18.902Z,98341.06
2017-09-05T07:27:47.241Z,98336.61
2017-09-05T07:30:15.558Z,98340.05
2017-09-05T07:32:43.918Z,98341.28
2017-09-05T07:35:12.236Z,98333.91
2017-09-05T07:37:40.549Z,98334.41
2017-09-05T07:40:08.894Z,98332.19
2017-09-05T07:42:37.298Z,98336.77
2017-09-05T07:45:05.618Z,98332.95
2017-09-05T07:47:33.972Z,98337.72
2017-09-05T07:50:02.288Z,98334.47
2017-09-05T07:52:30.637Z,98342.92
2017-09-05T07:54:58.949Z,98345.58
2017-09-05T07:57:27.275Z,98348.47
2017-09-05T07:59:55.630Z,98345.27
2017-09-05T08:02:23.944Z,98346.81
2017-09-05T08:04:52.319Z,98343.89
2017-09-05T08:07:21.020Z,98339.25
2017-09-05T08:09:49.334Z,98349.84
2017-09-05T08:12:17.678Z,98348.92
2017-09-05T08:14:45.994Z,98340.66
2017-09-05T08:17:14.315Z,98347.67
2017-09-05T08:19:42.658Z,98347.14
2017-09-05T08:22:10.971Z,98351.94
2017-09-05T08:24:39.318Z,98346.94
2017-09-05T08:27:07.634Z,98351.59
2017-09-05T08:29:35.973Z,98350.55
2017-09-05T08:32:04.296Z,98346.45
2017-09-05T08:34:32.650Z,98343.22
2017-09-05T08:37:00.962Z,98351.90
2017-09-05T08:39:29.278Z,98353.57
2017-09-05T08:41:57.641Z,98349.78
2017-09-05T08:44:25.959Z,98353.17
2017-09-05T08:46:54.303Z,98353.95
2017-09-05T08:49:22.634Z,98355.31
2017-09-05T08:51:50.957Z,98359.31
2017-09-05T08:54:19.299Z,98350.73
2017-09-05T08:56:47.623Z,98353.13
2017-09-05T08:59:15.962Z,98354.63
2017-09-05T09:01:44.291Z,98359.80
2017-09-05T09:04:12.635Z,98356.90
2017-09-05T09:06:40.978Z,98352.27
2017-09-05T09:09:09.306Z,98353.02
2017-09-05T09:11:37.621Z,98350.34
2017-09-05T09:14:05.974Z,98350.19
2017-09-05T09:16:34.294Z,98346.84
2017-09-05T09:19:02.635Z,98345.78
2017-09-05T09:21:30.955Z,98349.67
2017-09-05T09:23:59.291Z,98349.78
2017-09-05T09:26:27.642Z,98351.72
2017-09-05T09:28:55.965Z,98347.47
2017-09-05T09:31:24.274Z,98341.53
2017-09-05T09:33:52.627Z,98338.22
2017-09-05T09:36:20.954Z,98340.02
2017-09-05T09:38:49.294Z,98339.14
2017-09-05T09:41:17.615Z,98339.61
2017-09-05T09:43:45.931Z,98335.78
2017-09-05T09:46:14.279Z,98338.26
2017-09-05T09:48:42.642Z,98340.22
2017-09-05T09:51:10.961Z,98331.95
2017-09-05T09:53:39.306Z,98335.86
2017-09-05T09:56:07.634Z,98329.44
2017-09-05T09:58:35.951Z,98333.05
2017-09-05T10:01:04.294Z,98333.25
2017-09-05T10:03:32.627Z,98332.00
2017-09-05T10:06:00.981Z,98336.16
2017-09-05T10:08:29.298Z,98337.63
2017-09-05T10:10:57.626Z,98330.99
2017-09-05T10:13:25.981Z,98325.73
2017-09-05T10:15:54.299Z,98321.37
2017-09-05T10:18:22.614Z,98322.91
2017-09-05T10:20:50.946Z,98323.72
2017-09-05T10:23:19.269Z,98323.75
2017-09-05T10:25:47.602Z,98315.85
2017-09-05T10:28:15.921Z,98312.12
2017-09-05T10:30:44.270Z,98313.33
2017-09-05T10:33:12.587Z,98299.48
2017-09-05T10:35:40.923Z,98313.56
2017-09-05T10:38:09.278Z,98310.97
2017-09-05T10:40:37.600Z,98310.14
2017-09-05T10:43:05.915Z,98306.30
2017-09-05T10:45:34.259Z,98298.89
2017-09-05T10:48:02.653Z,98305.73
2017-09-05T10:50:31.001Z,98301.95
2017-09-05T10:52:59.332Z,98296.47
2017-09-05T10:55:27.651Z,98297.89
2017-09-05T10:57:55.999Z,98295.75
2017-09-05T11:00:24.326Z,98295.64
2017-09-05T11:02:52.646Z,98299.80
2017-09-05T11:05:20.998Z,98299.13
2017-09-05T11:07:49.314Z,98306.99
2017-09-05T11:10:17.631Z,98305.82
2017-09-05T11:12:45.970Z,98298.48
2017-09-05T11:15:14.304Z,98291.16
2017-09-05T11:17:42.651Z,98289.56
2017-09-05T11:20:10.966Z,98287.19
2017-09-05T11:22:39.284Z,98283.20
2017-09-05T11:25:07.628Z,98281.05
2017-09-05T11:27:35.949Z,98279.98
2017-09-05T11:30:04.267Z,98284.66
2017-09-05T11:32:32.610Z,98273.14
2017-09-05T11:35:00.922Z,98271.45
2017-09-05T11:37:29.238Z,98270.79
2017-09-05T11:39:57.580Z,98267.92
2017-09-05T11:42:25.898Z,98270.31
2017-09-05T11:44:54.218Z,98267.59
2017-09-05T11:47:22.558Z,98270.02
2017-09-05T11:49:50.874Z,98262.24
2017-09-05T11:52:19.210Z,98259.83
2017-09-05T11:54:47.525Z,98256.95
2017-09-05T11:57:15.865Z,98255.35
2017-09-05T11:59:44.180Z,98259.34
2017-09-05T12:02:12.496Z,98257.19
2017-09-05T12:04:40.834Z,98250.38
2017-09-05T12:07:09.160Z,98247.11
2017-09-05T12:09:37.483Z,98241.73
2017-09-05T12:12:05.822Z,98239.63
2017-09-05T12:14:34.135Z,98246.59
2017-09-05T12:17:02.463Z,98245.22
2017-09-05T12:19:30.813Z,98243.58
2017-09-05T12:21:59.126Z,98238.91
2017-09-05T12:24:27.473Z,98239.98
2017-09-05T12:26:55.788Z,98236.44
2017-09-05T12:29:24.106Z,98237.41
2017-09-05T12:31:52.445Z,98236.16
2017-09-05T12:34:20.758Z,98231.88
2017-09-05T12:36:49.080Z,98230.36
2017-09-05T12:39:17.436Z,98225.80
2017-09-05T12:41:45.766Z,98225.59
2017-09-05T12:44:14.084Z,98219.96
2017-09-05T12:46:42.458Z,98216.95
2017-09-05T12:49:10.770Z,98213.30
2017-09-05T12:51:39.082Z,98206.35
2017-09-05T12:54:07.430Z,98206.82
2017-09-05T12:56:35.750Z,98212.81
2017-09-05T12:59:04.063Z,98210.55
2017-09-05T13:01:32.406Z,98208.29
2017-09-05T13:04:00.732Z,98211.95
2017-09-05T13:06:29.046Z,98205.42
2017-09-05T13:08:57.386Z,98196.55
2017-09-05T13:11:25.701Z,98200.25
2017-09-05T13:13:54.038Z,98199.25
2017-09-05T13:16:22.351Z,98199.66
2017-09-05T13:18:50.680Z,98201.00
2017-09-05T13:21:19.019Z,98207.41
2017-09-05T13:23:47.333Z,98201.43
2017-09-05T13:26:15.653Z,98202.83
2017-09-05T13:28:43.997Z,98210.52
2017-09-05T13:31:12.315Z,98201.38
2017-09-05T13:33:40.672Z,98198.45
2017-09-05T13:36:08.997Z,98194.82
2017-09-05T13:38:37.343Z,98192.50
2017-09-05T13:41:05.672Z,98187.45
2017-09-05T13:43:33.996Z,98184.36
2017-09-05T13:46:02.363Z,98181.42
2017-09-05T13:48:30.685Z,98173.37
2017-09-05T13:50:59.002Z,98174.96
2017-09-05T13:53:27.345Z,98180.56
2017-09-05T13:55:55.672Z,98182.34
2017-09-05T13:58:24.018Z,98177.98
2017-09-05T14:00:52.333Z,98179.76
2017-09-05T14:03:20.662Z,98178.05
2017-09-05T14:05:49.002Z,98179.13
2017-09-05T14:08:17.318Z,98178.66
2017-09-05T14:10:45.669Z,98174.91
2017-09-05T14:13:13.982Z,98180.94
2017-09-05T14:15:42.322Z,98183.41
2017-09-05T14:18:10.642Z,98181.77
2017-09-05T14:20:38.966Z,98179.98
2017-09-05T14:23:07.310Z,98180.56
2017-09-05T14:25:35.639Z,98181.16
2017-09-05T14:28:03.966Z,98175.55
2017-09-05T14:30:32.312Z,98178.84
2017-09-05T14:33:00.637Z,98175.16
2017-09-05T14:35:28.979Z,98176.98
2017-09-05T14:37:57.300Z,98171.56
2017-09-05T14:40:25.615Z,98168.24
2017-09-05T14:42:53.958Z,98166.98
2017-09-05T14:45:22.278Z,98168.77
2017-09-05T14:47:50.625Z,98171.43
2017-09-05T14:50:18.947Z,98180.63
2017-09-05T14:52:47.295Z,98171.36
2017-09-05T14:55:15.618Z,98177.68
2017-09-05T14:57:43.941Z,98173.46
2017-09-05T15:00:12.281Z,98170.01
2017-09-05T15:02:40.606Z,98170.72
2017-09-05T15:05:08.922Z,98168.10
2017-09-05T15:07:37.272Z,98166.78
2017-09-05T15:10:05.591Z,98171.01
2017-09-05T15:12:33.906Z,98166.90
2017-09-05T15:15:02.247Z,98170.67
2017-09-05T15:17:30.567Z,98165.13
2017-09-05T15:19:58.901Z,98172.38
2017-09-05T15:22:27.262Z,98168.10
2017-09-05T15:24:55.590Z,98173.56
2017-09-05T15:27:23.937Z,98173.63
2017-09-05T15:29:52.267Z,98173.29
2017-09-05T15:32:20.592Z,98178.16
2017-09-05T15:34:48.944Z,98174.64
2017-09-05T15:37:17.270Z,98173.39
2017-09-05T15:39:45.613Z,98174.42
2017-09-05T15:42:13.927Z,98180.92
2017-09-05T15:44:42.280Z,98168.34
2017-09-05T15:47:10.608Z,98179.08
2017-09-05T15:49:38.936Z,98170.13
2017-09-05T15:52:07.282Z,98169.97
2017-09-05T15:54:35.616Z,98169.00
2017-09-05T15:57:03.962Z,98168.38
2017-09-05T15:59:32.279Z,98167.93
2017-09-05T16:02:00.603Z,98171.45
2017-09-05T16:04:28.950Z,98163.58
2017-09-05T16:06:57.276Z,98167.62
2017-09-05T16:09:25.623Z,98161.61
2017-09-05T16:11:53.950Z,98163.38
2017-09-05T16:14:22.259Z,98164.90
2017-09-05T16:16:50.600Z,98158.46
2017-09-05T16:19:18.919Z,98162.76
2017-09-05T16:21:47.238Z,98154.41
2017-09-05T16:24:15.636Z,98149.37
2017-09-05T16:26:44.227Z,98147.80
2017-09-05T16:29:12.570Z,98144.76
2017-09-05T16:31:40.890Z,98137.86
2017-09-05T16:34:09.250Z,98138.88
2017-09-05T16:36:37.571Z,98137.55
2017-09-05T16:39:05.900Z,98138.38
2017-09-05T16:41:34.249Z,98134.03
2017-09-05T16:44:02.574Z,98135.66
2017-09-05T16:46:30.900Z,98134.69
2017-09-05T16:48:59.249Z,98134.30
2017-09-05T16:51:27.569Z,98130.89
2017-09-05T16:53:55.887Z,98131.59
2017-09-05T16:56:24.236Z,98129.50
2017-09-05T16:58:52.555Z,98126.66
2017-09-05T17:01:20.910Z,98127.79
2017-09-05T17:03:49.232Z,98125.04
2017-09-05T17:06:17.546Z,98130.36
2017-09-05T17:08:45.900Z,98129.94
2017-09-05T17:11:14.222Z,98129.96
2017-09-05T17:13:42.576Z,98127.30
2017-09-05T17:16:10.901Z,98132.84
2017-09-05T17:18:39.243Z,98126.47
2017-09-05T17:21:07.569Z,98119.67
2017-09-05T17:23:35.893Z,98115.95
2017-09-05T17:26:04.241Z,98113.22
2017-09-05T17:28:32.586Z,98112.92
2017-09-05T17:31:00.914Z,98113.00
2017-09-05T17:33:29.234Z,98115.14
2017-09-05T17:35:57.602Z,98113.38
2017-09-05T17:38:25.915Z,98113.50
2017-09-05T17:40:54.230Z,98107.23
2017-09-05T17:43:22.605Z,98108.81
2017-09-05T17:45:50.922Z,98107.36
2017-09-05T17:48:19.255Z,98112.69
2017-09-05T17:50:47.610Z,98114.06
2017-09-05T17:53:15.929Z,98109.00
2017-09-05T17:55:44.309Z,98110.70
2017-09-05T17:58:12.654Z,98120.36
2017-09-05T18:00:40.970Z,98120.00
2017-09-05T18:03:09.311Z,98125.80
2017-09-05T18:05:37.624Z,98126.42
2017-09-05T18:08:05.944Z,98130.16
2017-09-05T18:10:34.293Z,98122.92
2017-09-05T18:13:02.619Z,98117.66
2017-09-05T18:15:30.972Z,98121.56
2017-09-05T18:17:59.286Z,98127.20
2017-09-05T18:20:27.619Z,98127.48
2017-09-05T18:22:55.967Z,98126.08
2017-09-05T18:25:24.286Z,98127.22
2017-09-05T18:27:52.610Z,98123.84
2017-09-05T18:30:20.950Z,98128.03
2017-09-05T18:32:49.267Z,98128.99
2017-09-05T18:35:17.612Z,98126.22
2017-09-05T18:37:45.935Z,98127.62
2017-09-05T18:40:14.258Z,98127.36
2017-09-05T18:42:42.607Z,98122.59
2017-09-05T18:45:10.929Z,98126.11
2017-09-05T18:47:39.278Z,98136.74
2017-09-05T18:50:07.608Z,98144.04
2017-09-05T18:52:35.958Z,98142.53
2017-09-05T18:55:04.285Z,98139.24
2017-09-05T18:57:32.634Z,98141.43
2017-09-05T19:00:00.982Z,98140.08
2017-09-05T19:02:29.300Z,98135.52
2017-09-05T19:04:57.642Z,98143.53
2017-09-05T19:07:25.969Z,98138.45
2017-09-05T19:09:54.327Z,98142.83
2017-09-05T19:12:22.648Z,98140.41
2017-09-05T19:14:50.975Z,98136.53
2017-09-05T19:17:19.336Z,98131.14
2017-09-05T19:19:47.658Z,98127.22
2017-09-05T19:22:15.996Z,98121.12
2017-09-05T19:24:44.346Z,98125.97
2017-09-05T19:27:12.672Z,98128.20
2017-09-05T19:29:40.994Z,98125.69
2017-09-05T19:32:09.344Z,98130.98
2017-09-05T19:34:37.668Z,98122.88
2017-09-05T19:37:05.993Z,98116.63
2017-09-05T19:39:34.360Z,98119.80
2017-09-05T19:42:02.682Z,98117.09
2017-09-05T19:44:31.027Z,98116.52
2017-09-05T19:46:59.351Z,98120.87
2017-09-05T19:49:27.744Z,98125.27
2017-09-05T19:51:56.089Z,98118.19
2017-09-05T19:54:24.436Z,98124.67
2017-09-05T19:56:52.762Z,98128.95
2017-09-05T19:59:21.082Z,98119.67
2017-09-05T20:01:49.442Z,98124.03
2017-09-05T20:04:17.767Z,98121.45
2017-09-05T20:06:46.095Z,98115.95
2017-09-05T20:09:14.523Z,98117.26
2017-09-05T20:11:42.839Z,98117.84
2017-09-05T20:14:11.193Z,98121.42
2017-09-05T20:16:39.516Z,98116.40
2017-09-05T20:19:07.846Z,98114.73
2017-09-05T20:21:36.189Z,98113.71
2017-09-05T20:24:04.505Z,98118.03
2017-09-05T20:26:32.850Z,98114.91
2017-09-05T20:29:01.162Z,98119.75
2017-09-05T20:31:29.471Z,98119.70
2017-09-05T20:33:58.329Z,98112.88
2017-09-05T20:36:26.922Z,98115.02
2017-09-05T20:38:55.762Z,98116.70
2017-09-05T20:41:25.025Z,98113.63
2017-09-05T20:43:54.056Z,98108.06
2017-09-05T20:46:22.560Z,98109.01
2017-09-05T20:48:50.894Z,98106.08
2017-09-05T20:51:19.224Z,98105.45
2017-09-05T20:53:47.571Z,98104.59
2017-09-05T20:56:15.894Z,98105.43
2017-09-05T20:58:44.219Z,98098.97
2017-09-05T21:01:12.579Z,98099.63
2017-09-05T21:03:41.010Z,98097.53
2017-09-05T21:06:09.352Z,98101.70
2017-09-05T21:08:37.707Z,98091.95
2017-09-05T21:11:06.037Z,98090.47
2017-09-05T21:13:34.364Z,98090.17
2017-09-05T21:16:02.707Z,98089.13
2017-09-05T21:18:31.034Z,98086.72
2017-09-05T21:20:59.380Z,98095.28
2017-09-05T21:23:27.694Z,98091.81
2017-09-05T21:25:56.009Z,98085.56
2017-09-05T21:28:24.355Z,98093.72
2017-09-05T21:30:52.682Z,98084.75
2017-09-05T21:33:21.019Z,98080.05
2017-09-05T21:35:49.365Z,98078.44
2017-09-05T21:38:17.701Z,98079.25
2017-09-05T21:40:46.030Z,98075.53
2017-09-05T21:43:14.370Z,98070.08
2017-09-05T21:45:42.694Z,98063.20
2017-09-05T21:48:11.018Z,98052.97
2017-09-05T21:50:39.367Z,98054.77
2017-09-05T21:53:07.683Z,98055.70
2017-09-05T21:55:36.002Z,98055.14
2017-09-05T21:58:04.348Z,98063.73
2017-09-05T22:00:32.675Z,98059.73
2017-09-05T22:03:00.994Z,98048.80
2017-09-05T22:05:29.346Z,98054.61
2017-09-05T22:07:57.679Z,98052.34
2017-09-05T22:10:25.999Z,98050.20
2017-09-05T22:12:54.360Z,98050.63
2017-09-05T22:15:28.135Z,98043.36
2017-09-05T22:17:56.499Z,98042.28
2017-09-05T22:20:30.303Z,98043.29
2017-09-05T22:22:59.306Z,98040.02
2017-09-05T22:25:33.187Z,98041.50
2017-09-05T22:28:06.995Z,98035.25
2017-09-05T22:30:35.310Z,98034.67
2017-09-05T22:33:03.882Z,98038.70
2017-09-05T22:35:32.235Z,98028.97
2017-09-05T22:38:00.550Z,98029.77
2017-09-05T22:40:28.870Z,98027.20
2017-09-05T22:42:57.226Z,98028.16
2017-09-05T22:45:25.552Z,98031.85
2017-09-05T22:47:53.883Z,98028.16
2017-09-05T22:50:22.227Z,98033.27
2017-09-05T22:52:50.561Z,98035.55
2017-09-05T22:55:18.880Z,98036.27
2017-09-05T22:57:47.239Z,98034.11
2017-09-05T23:00:15.568Z,98034.83
2017-09-05T23:02:43.894Z,98035.00
2017-09-05T23:05:12.243Z,98030.58
2017-09-05T23:07:40.569Z,98029.44
2017-09-05T23:10:08.906Z,98029.02
2017-09-05T23:12:37.251Z,98020.44
2017-09-05T23:15:05.571Z,98019.91
2017-09-05T23:17:33.890Z,98020.50
2017-09-05T23:20:02.271Z,98021.80
2017-09-05T23:22:30.589Z,98010.73
2017-09-05T23:24:58.915Z,98014.68
2017-09-05T23:27:27.263Z,98007.16
2017-09-05T23:29:55.587Z,98011.94
2017-09-05T23:32:23.908Z,98013.74
2017-09-05T23:34:52.266Z,98009.05
2017-09-05T23:37:20.586Z,98003.80
2017-09-05T23:39:48.926Z,98015.77
2017-09-05T23:42:17.279Z,98009.56
2017-09-05T23:44:45.608Z,98008.42
2017-09-05T23:47:13.929Z,98012.30
2017-09-05T23:49:42.282Z,98007.39
2017-09-05T23:52:10.603Z,98005.19
2017-09-05T23:54:38.927Z,98001.55
2017-09-05T23:57:07.283Z,97994.07
2017-09-05T23:59:35.598Z,97993.57
